createdAt,value
2023-05-19T00:00:48.938Z,101783.99
2023-05-19T00:03:22.007Z,101780.52
2023-05-19T00:05:53.729Z,101783.13
2023-05-19T00:08:24.683Z,101782.30
2023-05-19T00:10:52.888Z,101781.97
2023-05-19T00:13:21.767Z,101774.95
2023-05-19T00:15:51.054Z,101773.79
2023-05-19T00:18:19.218Z,101773.98
2023-05-19T00:20:47.077Z,101772.32
2023-05-19T00:23:15.051Z,101770.06
2023-05-19T00:25:43.004Z,101770.34
2023-05-19T00:28:10.772Z,101768.45
2023-05-19T00:30:38.665Z,101766.17
2023-05-19T00:33:06.717Z,101764.42
2023-05-19T00:35:34.703Z,101764.67
2023-05-19T00:38:02.549Z,101760.58
2023-05-19T00:40:32.144Z,101764.70
2023-05-19T00:43:00.848Z,101760.52
2023-05-19T00:45:29.255Z,101758.84
2023-05-19T00:47:57.471Z,101760.42
2023-05-19T00:50:27.328Z,101756.55
2023-05-19T00:52:56.421Z,101752.95
2023-05-19T00:55:30.109Z,101754.99
2023-05-19T00:57:58.272Z,101755.36
2023-05-19T01:00:26.177Z,101755.89
2023-05-19T01:02:54.319Z,101755.92
2023-05-19T01:05:22.517Z,101757.86
2023-05-19T01:07:53.511Z,101756.77
2023-05-19T01:10:21.664Z,101759.69
2023-05-19T01:12:49.508Z,101759.25
2023-05-19T01:15:17.687Z,101760.52
2023-05-19T01:17:55.906Z,101759.36
2023-05-19T01:20:41.634Z,101754.72
2023-05-19T01:23:38.419Z,101760.75
2023-05-19T01:26:55.035Z,101766.89
2023-05-19T01:30:08.391Z,101762.47
2023-05-19T01:32:40.804Z,101766.89
2023-05-19T01:35:12.607Z,101767.04
2023-05-19T01:37:41.209Z,101773.06
2023-05-19T01:40:11.741Z,101776.83
2023-05-19T01:42:40.736Z,101778.39
2023-05-19T01:45:11.904Z,101780.21
2023-05-19T01:47:43.534Z,101779.14
2023-05-19T01:50:11.630Z,101778.20
2023-05-19T01:52:39.607Z,101783.33
2023-05-19T01:55:10.067Z,101785.10
2023-05-19T01:58:17.126Z,101784.58
2023-05-19T02:01:06.100Z,101783.65
2023-05-19T02:04:27.372Z,101781.72
2023-05-19T02:07:15.577Z,101778.61
2023-05-19T02:10:10.701Z,101780.27
2023-05-19T02:12:40.706Z,101780.24
2023-05-19T02:15:25.925Z,101776.81
2023-05-19T02:17:58.141Z,101777.68
2023-05-19T02:20:26.073Z,101776.69
2023-05-19T02:22:53.883Z,101780.95
2023-05-19T02:25:23.329Z,101778.27
2023-05-19T02:27:52.101Z,101779.40
2023-05-19T02:30:20.046Z,101775.90
2023-05-19T02:32:48.047Z,101776.20
2023-05-19T02:35:17.468Z,101774.54
2023-05-19T02:37:45.952Z,101773.71
2023-05-19T02:40:13.815Z,101775.92
2023-05-19T02:42:41.618Z,101773.35
2023-05-19T02:45:11.032Z,101771.81
2023-05-19T02:47:41.960Z,101771.98
2023-05-19T02:50:10.039Z,101772.06
2023-05-19T02:52:37.908Z,101777.18
2023-05-19T02:55:06.511Z,101777.91
2023-05-19T02:57:35.059Z,101773.08
2023-05-19T03:00:03.504Z,101777.58
2023-05-19T03:02:33.384Z,101775.19
2023-05-19T03:05:03.651Z,101770.41
2023-05-19T03:07:31.611Z,101773.33
2023-05-19T03:09:59.549Z,101772.00
2023-05-19T03:12:27.381Z,101770.70
2023-05-19T03:14:55.307Z,101770.14
2023-05-19T03:17:23.214Z,101765.11
2023-05-19T03:19:51.413Z,101763.11
2023-05-19T03:22:20.865Z,101766.07
2023-05-19T03:24:51.072Z,101768.52
2023-05-19T03:27:19.053Z,101765.96
2023-05-19T03:29:47.017Z,101757.78
2023-05-19T03:32:15.836Z,101765.75
2023-05-19T03:34:43.852Z,101764.45
2023-05-19T03:37:12.888Z,101759.98
2023-05-19T03:39:41.454Z,101763.08
2023-05-19T03:42:09.371Z,101760.48
2023-05-19T03:44:37.200Z,101764.46
2023-05-19T03:47:05.682Z,101763.64
2023-05-19T03:49:53.515Z,101765.20
2023-05-19T03:52:40.266Z,101765.52
2023-05-19T03:55:16.254Z,101771.21
2023-05-19T03:57:44.515Z,101772.92
2023-05-19T04:00:13.372Z,101772.40
2023-05-19T04:02:42.073Z,101771.67
2023-05-19T04:05:10.749Z,101776.03
2023-05-19T04:07:38.707Z,101774.70
2023-05-19T04:10:07.671Z,101772.31
2023-05-19T04:12:35.530Z,101772.93
2023-05-19T04:15:06.152Z,101774.23
2023-05-19T04:17:35.112Z,101771.23
2023-05-19T04:20:03.010Z,101776.55
2023-05-19T04:22:30.848Z,101776.34
2023-05-19T04:24:59.246Z,101776.05
2023-05-19T04:27:29.062Z,101769.93
2023-05-19T04:29:58.068Z,101774.19
2023-05-19T04:32:26.097Z,101773.54
2023-05-19T04:34:54.590Z,101771.85
2023-05-19T04:37:26.635Z,101771.12
2023-05-19T04:39:55.357Z,101773.02
2023-05-19T04:42:26.045Z,101775.66
2023-05-19T04:44:54.124Z,101774.20
2023-05-19T04:47:22.461Z,101778.11
2023-05-19T04:49:55.514Z,101775.40
2023-05-19T04:52:23.608Z,101775.04
2023-05-19T04:54:52.805Z,101777.04
2023-05-19T04:57:21.118Z,101773.80
2023-05-19T04:59:49.556Z,101777.60
2023-05-19T05:02:17.524Z,101786.36
2023-05-19T05:04:46.589Z,101783.94
2023-05-19T05:07:54.085Z,101788.95
2023-05-19T05:10:23.359Z,101789.31
2023-05-19T05:12:51.732Z,101789.43
2023-05-19T05:15:20.998Z,101789.80
2023-05-19T05:17:50.811Z,101786.48
2023-05-19T05:20:20.044Z,101785.05
2023-05-19T05:22:48.409Z,101784.99
2023-05-19T05:25:17.610Z,101782.48
2023-05-19T05:27:45.734Z,101786.71
2023-05-19T05:30:14.997Z,101780.39
2023-05-19T05:32:43.867Z,101778.64
2023-05-19T05:35:24.254Z,101775.73
2023-05-19T05:37:52.537Z,101778.38
2023-05-19T05:40:20.551Z,101777.54
2023-05-19T05:42:49.189Z,101771.95
2023-05-19T05:45:18.560Z,101775.41
2023-05-19T05:47:47.037Z,101774.70
2023-05-19T05:50:15.777Z,101775.30
2023-05-19T05:52:50.992Z,101776.80
2023-05-19T05:55:19.753Z,101771.28
2023-05-19T05:57:50.571Z,101774.77
2023-05-19T06:00:19.604Z,101774.05
2023-05-19T06:02:51.829Z,101777.45
2023-05-19T06:05:21.092Z,101780.67
2023-05-19T06:07:49.554Z,101783.16
2023-05-19T06:10:22.278Z,101783.05
2023-05-19T06:12:50.835Z,101784.86
2023-05-19T06:15:18.719Z,101787.45
2023-05-19T06:17:52.416Z,101788.48
2023-05-19T06:20:20.517Z,101789.35
2023-05-19T06:22:48.505Z,101787.32
2023-05-19T06:25:17.698Z,101791.33
2023-05-19T06:27:46.488Z,101788.23
2023-05-19T06:30:14.838Z,101788.19
2023-05-19T06:32:51.866Z,101787.71
2023-05-19T06:35:19.712Z,101785.63
2023-05-19T06:37:47.588Z,101788.89
2023-05-19T06:40:16.101Z,101795.02
2023-05-19T06:42:44.166Z,101792.59
2023-05-19T06:45:22.001Z,101797.40
2023-05-19T06:47:51.491Z,101797.58
2023-05-19T06:50:20.241Z,101797.50
2023-05-19T06:52:50.946Z,101799.93
2023-05-19T06:55:19.670Z,101802.11
2023-05-19T06:57:48.316Z,101797.16
2023-05-19T07:00:19.942Z,101801.69
2023-05-19T07:02:50.256Z,101803.94
2023-05-19T07:05:19.305Z,101804.52
2023-05-19T07:07:50.966Z,101803.08
2023-05-19T07:10:21.966Z,101807.44
2023-05-19T07:12:50.165Z,101807.95
2023-05-19T07:15:18.805Z,101807.32
2023-05-19T07:17:46.818Z,101804.09
2023-05-19T07:20:15.817Z,101807.34
2023-05-19T07:22:43.858Z,101806.46
2023-05-19T07:25:11.697Z,101804.14
2023-05-19T07:27:39.934Z,101801.15
2023-05-19T07:30:08.632Z,101799.69
2023-05-19T07:32:36.580Z,101799.61
2023-05-19T07:35:06.516Z,101797.69
2023-05-19T07:37:34.462Z,101795.91
2023-05-19T07:40:02.467Z,101796.13
2023-05-19T07:42:30.543Z,101794.69
2023-05-19T07:44:58.370Z,101799.34
2023-05-19T07:47:26.494Z,101803.33
2023-05-19T07:49:54.341Z,101803.08
2023-05-19T07:52:22.160Z,101800.73
2023-05-19T07:54:50.048Z,101799.19
2023-05-19T07:57:18.931Z,101789.27
2023-05-19T07:59:46.837Z,101789.69
2023-05-19T08:02:14.874Z,101791.63
2023-05-19T08:04:42.999Z,101791.64
2023-05-19T08:07:11.001Z,101792.48
2023-05-19T08:09:38.964Z,101792.77
2023-05-19T08:12:06.863Z,101789.14
2023-05-19T08:14:34.892Z,101794.21
2023-05-19T08:17:02.836Z,101787.30
2023-05-19T08:19:30.799Z,101784.61
2023-05-19T08:22:01.095Z,101787.52
2023-05-19T08:24:30.125Z,101785.98
2023-05-19T08:26:58.147Z,101785.73
2023-05-19T08:29:26.173Z,101782.64
2023-05-19T08:31:54.200Z,101781.94
2023-05-19T08:34:22.406Z,101785.50
2023-05-19T08:36:50.392Z,101786.80
2023-05-19T08:39:24.132Z,101785.73
2023-05-19T08:41:56.128Z,101780.44
2023-05-19T08:44:24.353Z,101777.97
2023-05-19T08:46:55.550Z,101771.06
2023-05-19T08:49:28.482Z,101770.63
2023-05-19T08:52:16.146Z,101771.73
2023-05-19T08:54:53.173Z,101768.14
2023-05-19T08:57:24.878Z,101770.38
2023-05-19T08:59:55.795Z,101770.50
2023-05-19T09:02:24.261Z,101768.27
2023-05-19T09:04:53.264Z,101768.73
2023-05-19T09:07:22.913Z,101769.27
2023-05-19T09:09:50.771Z,101773.21
2023-05-19T09:12:18.581Z,101772.02
2023-05-19T09:14:47.189Z,101771.22
2023-05-19T09:17:15.790Z,101775.58
2023-05-19T09:19:48.197Z,101773.26
2023-05-19T09:22:19.103Z,101774.37
2023-05-19T09:24:47.469Z,101775.84
2023-05-19T09:27:23.461Z,101773.25
2023-05-19T09:29:51.594Z,101768.76
2023-05-19T09:32:26.570Z,101769.39
2023-05-19T09:34:55.147Z,101770.98
2023-05-19T09:37:24.509Z,101767.52
2023-05-19T09:39:53.508Z,101767.58
2023-05-19T09:42:27.040Z,101766.70
2023-05-19T09:45:02.951Z,101768.27
2023-05-19T09:47:42.163Z,101759.65
2023-05-19T09:50:12.616Z,101763.08
2023-05-19T09:52:44.547Z,101759.85
2023-05-19T09:55:13.480Z,101764.19
2023-05-19T09:57:41.542Z,101765.73
2023-05-19T10:00:17.854Z,101763.52
2023-05-19T10:02:48.095Z,101759.25
2023-05-19T10:05:20.718Z,101762.71
2023-05-19T10:07:51.525Z,101762.90
2023-05-19T10:10:22.368Z,101762.40
2023-05-19T10:12:50.238Z,101762.45
2023-05-19T10:15:23.173Z,101761.17
2023-05-19T10:17:52.331Z,101759.08
2023-05-19T10:20:20.262Z,101754.63
2023-05-19T10:22:48.681Z,101754.85
2023-05-19T10:25:18.554Z,101755.11
2023-05-19T10:28:05.530Z,101757.89
2023-05-19T10:30:39.590Z,101759.84
2023-05-19T10:33:13.814Z,101754.71
2023-05-19T10:36:14.717Z,101752.64
2023-05-19T10:38:53.245Z,101757.55
2023-05-19T10:41:47.559Z,101758.12
2023-05-19T10:44:56.354Z,101758.59
2023-05-19T10:47:26.191Z,101757.07
2023-05-19T10:49:54.393Z,101759.39
2023-05-19T10:52:29.824Z,101760.33
2023-05-19T10:54:58.263Z,101757.63
2023-05-19T10:57:32.108Z,101755.61
2023-05-19T11:00:29.107Z,101757.46
2023-05-19T11:03:15.302Z,101759.85
2023-05-19T11:05:45.608Z,101760.16
2023-05-19T11:08:14.057Z,101758.48
2023-05-19T11:10:46.199Z,101761.01
2023-05-19T11:13:23.720Z,101758.98
2023-05-19T11:15:51.846Z,101764.45
2023-05-19T11:18:21.291Z,101764.60
2023-05-19T11:20:58.400Z,101762.48
2023-05-19T11:23:26.620Z,101757.00
2023-05-19T11:25:54.600Z,101756.94
2023-05-19T11:28:26.359Z,101755.98
2023-05-19T11:31:01.143Z,101750.90
2023-05-19T11:33:30.017Z,101745.27
2023-05-19T11:35:58.425Z,101750.98
2023-05-19T11:38:28.558Z,101750.80
2023-05-19T11:40:57.286Z,101751.47
2023-05-19T11:43:26.287Z,101745.73
2023-05-19T11:45:55.891Z,101741.19
2023-05-19T11:48:26.192Z,101739.02
2023-05-19T11:50:54.375Z,101735.11
2023-05-19T11:53:23.129Z,101736.24
2023-05-19T11:55:51.796Z,101740.09
2023-05-19T11:58:26.578Z,101744.77
2023-05-19T12:00:54.666Z,101744.21
2023-05-19T12:03:28.050Z,101749.36
2023-05-19T12:05:56.756Z,101751.80
2023-05-19T12:08:25.758Z,101753.11
2023-05-19T12:10:54.143Z,101754.98
2023-05-19T12:13:22.967Z,101754.73
2023-05-19T12:15:53.288Z,101752.77
2023-05-19T12:18:21.449Z,101750.20
2023-05-19T12:20:49.762Z,101746.39
2023-05-19T12:23:17.877Z,101752.58
2023-05-19T12:25:46.083Z,101747.11
2023-05-19T12:28:16.418Z,101750.55
2023-05-19T12:30:53.031Z,101748.65
2023-05-19T12:33:22.759Z,101744.89
2023-05-19T12:35:51.345Z,101740.09
2023-05-19T12:38:19.882Z,101738.69
2023-05-19T12:40:49.340Z,101732.32
2023-05-19T12:43:22.734Z,101729.86
2023-05-19T12:45:51.188Z,101732.05
2023-05-19T12:48:22.638Z,101737.25
2023-05-19T12:50:55.428Z,101734.53
2023-05-19T12:53:26.425Z,101734.34
2023-05-19T12:55:54.346Z,101733.83
2023-05-19T12:58:23.284Z,101730.42
2023-05-19T13:00:58.566Z,101734.51
2023-05-19T13:03:26.712Z,101734.69
2023-05-19T13:05:55.346Z,101735.84
2023-05-19T13:08:24.676Z,101730.36
2023-05-19T13:10:52.598Z,101726.61
2023-05-19T13:13:20.467Z,101732.48
2023-05-19T13:15:49.122Z,101727.14
2023-05-19T13:18:17.939Z,101733.84
2023-05-19T13:20:47.226Z,101739.17
2023-05-19T13:23:16.079Z,101741.40
2023-05-19T13:25:44.155Z,101742.47
2023-05-19T13:28:12.288Z,101740.02
2023-05-19T13:30:41.650Z,101742.40
2023-05-19T13:33:10.076Z,101741.09
2023-05-19T13:35:38.797Z,101735.17
2023-05-19T13:38:09.877Z,101732.55
2023-05-19T13:40:39.874Z,101734.56
2023-05-19T13:43:08.888Z,101733.25
2023-05-19T13:45:37.730Z,101735.38
2023-05-19T13:48:07.366Z,101734.36
2023-05-19T13:50:35.733Z,101734.02
2023-05-19T13:53:03.760Z,101730.58
2023-05-19T13:55:33.026Z,101728.53
2023-05-19T13:58:00.933Z,101725.95
2023-05-19T14:00:31.810Z,101718.17
2023-05-19T14:03:00.298Z,101722.66
2023-05-19T14:05:29.214Z,101724.98
2023-05-19T14:07:57.969Z,101723.49
2023-05-19T14:10:26.053Z,101722.67
2023-05-19T14:13:22.843Z,101718.16
2023-05-19T14:15:42.037Z,101727.81
2023-05-19T14:18:10.150Z,101719.38
2023-05-19T14:20:38.029Z,101719.77
2023-05-19T14:23:06.166Z,101721.75
2023-05-19T14:25:34.014Z,101725.96
2023-05-19T14:28:01.842Z,101723.34
2023-05-19T14:30:29.724Z,101721.08
2023-05-19T14:32:57.676Z,101720.10
2023-05-19T14:35:26.023Z,101723.15
2023-05-19T14:37:53.976Z,101724.98
2023-05-19T14:40:22.070Z,101725.14
2023-05-19T14:42:49.985Z,101723.38
2023-05-19T14:45:18.044Z,101728.90
2023-05-19T14:47:47.073Z,101729.46
2023-05-19T14:50:15.927Z,101730.91
2023-05-19T14:52:43.921Z,101731.05
2023-05-19T14:55:11.873Z,101732.81
2023-05-19T14:57:39.824Z,101730.77
2023-05-19T15:00:11.015Z,101742.30
2023-05-19T15:02:38.998Z,101751.46
2023-05-19T15:05:08.582Z,101753.17
2023-05-19T15:07:36.452Z,101757.35
2023-05-19T15:10:05.044Z,101757.14
2023-05-19T15:12:32.885Z,101751.85
2023-05-19T15:15:00.870Z,101754.95
2023-05-19T15:17:28.827Z,101755.53
2023-05-19T15:19:56.738Z,101751.09
2023-05-19T15:22:24.617Z,101748.50
2023-05-19T15:24:52.400Z,101746.79
2023-05-19T15:27:21.079Z,101742.48
2023-05-19T15:29:49.176Z,101737.52
2023-05-19T15:32:17.162Z,101734.89
2023-05-19T15:34:45.063Z,101737.01
2023-05-19T15:37:12.899Z,101734.89
2023-05-19T15:39:40.752Z,101740.42
2023-05-19T15:42:08.582Z,101743.05
2023-05-19T15:44:36.686Z,101743.01
2023-05-19T15:47:04.820Z,101741.35
2023-05-19T15:49:32.680Z,101737.59
2023-05-19T15:52:00.605Z,101730.96
2023-05-19T15:54:28.477Z,101731.63
2023-05-19T15:56:56.296Z,101734.98
2023-05-19T15:59:24.597Z,101732.73
2023-05-19T16:01:53.133Z,101738.58
2023-05-19T16:04:21.690Z,101741.90
2023-05-19T16:06:49.698Z,101744.80
2023-05-19T16:09:17.668Z,101742.92
2023-05-19T16:11:45.549Z,101747.39
2023-05-19T16:14:14.177Z,101741.42
2023-05-19T16:16:42.326Z,101738.31
2023-05-19T16:19:10.543Z,101741.67
2023-05-19T16:21:38.563Z,101732.61
2023-05-19T16:24:06.715Z,101736.92
2023-05-19T16:26:34.617Z,101736.37
2023-05-19T16:29:02.566Z,101732.84
2023-05-19T16:31:30.925Z,101730.61
2023-05-19T16:33:58.816Z,101729.85
2023-05-19T16:36:26.934Z,101731.27
2023-05-19T16:38:54.859Z,101727.23
2023-05-19T16:41:22.967Z,101727.05
2023-05-19T16:43:50.867Z,101730.58
2023-05-19T16:46:18.722Z,101731.69
2023-05-19T16:48:46.696Z,101730.66
2023-05-19T16:51:14.787Z,101730.10
2023-05-19T16:53:42.659Z,101729.79
2023-05-19T16:56:10.648Z,101725.96
2023-05-19T16:58:38.799Z,101723.02
2023-05-19T17:01:06.752Z,101725.93
2023-05-19T17:03:35.667Z,101723.55
2023-05-19T17:06:03.755Z,101724.45
2023-05-19T17:08:31.852Z,101723.75
2023-05-19T17:10:59.849Z,101726.23
2023-05-19T17:13:29.659Z,101725.33
2023-05-19T17:15:57.537Z,101717.39
2023-05-19T17:18:25.403Z,101719.35
2023-05-19T17:20:53.272Z,101719.00
2023-05-19T17:23:21.520Z,101716.84
2023-05-19T17:25:54.025Z,101716.29
2023-05-19T17:28:22.033Z,101715.05
2023-05-19T17:30:49.924Z,101712.98
2023-05-19T17:33:19.911Z,101715.00
2023-05-19T17:35:47.857Z,101712.70
2023-05-19T17:38:15.839Z,101708.56
2023-05-19T17:40:43.763Z,101710.43
2023-05-19T17:43:11.654Z,101710.70
2023-05-19T17:45:39.595Z,101710.80
2023-05-19T17:48:08.589Z,101712.98
2023-05-19T17:50:36.426Z,101714.31
2023-05-19T17:53:04.619Z,101714.30
2023-05-19T17:55:33.414Z,101714.26
2023-05-19T17:58:01.809Z,101712.34
2023-05-19T18:00:30.073Z,101716.31
2023-05-19T18:02:58.913Z,101719.16
2023-05-19T18:05:27.603Z,101722.18
2023-05-19T18:07:57.479Z,101719.86
2023-05-19T18:10:26.209Z,101718.29
2023-05-19T18:12:54.140Z,101723.35
2023-05-19T18:15:22.062Z,101727.23
2023-05-19T18:17:49.973Z,101726.36
2023-05-19T18:20:18.245Z,101726.80
2023-05-19T18:22:46.955Z,101727.71
2023-05-19T18:25:14.849Z,101731.23
2023-05-19T18:27:43.784Z,101734.66
2023-05-19T18:30:11.783Z,101733.91
2023-05-19T18:32:42.411Z,101731.81
2023-05-19T18:35:10.557Z,101734.64
2023-05-19T18:37:38.442Z,101742.21
2023-05-19T18:40:10.782Z,101737.17
2023-05-19T18:42:38.965Z,101737.88
2023-05-19T18:45:07.544Z,101738.75
2023-05-19T18:47:35.549Z,101737.34
2023-05-19T18:50:04.054Z,101735.32
2023-05-19T18:52:31.984Z,101736.34
2023-05-19T18:55:01.166Z,101734.07
2023-05-19T18:57:29.118Z,101736.73
2023-05-19T18:59:56.944Z,101734.96
2023-05-19T19:02:25.048Z,101738.14
2023-05-19T19:04:53.626Z,101739.34
2023-05-19T19:07:21.575Z,101744.38
2023-05-19T19:09:49.471Z,101745.77
2023-05-19T19:12:18.459Z,101742.02
2023-05-19T19:14:48.191Z,101746.67
2023-05-19T19:17:16.165Z,101744.35
2023-05-19T19:19:44.356Z,101739.29
2023-05-19T19:22:12.308Z,101739.91
2023-05-19T19:24:42.958Z,101738.80
2023-05-19T19:27:11.008Z,101742.74
2023-05-19T19:29:38.856Z,101736.16
2023-05-19T19:32:07.343Z,101739.63
2023-05-19T19:34:36.416Z,101744.27
2023-05-19T19:37:04.387Z,101750.13
2023-05-19T19:39:32.412Z,101750.35
2023-05-19T19:42:00.300Z,101750.15
2023-05-19T19:44:28.261Z,101750.99
2023-05-19T19:46:56.264Z,101753.10
2023-05-19T19:49:24.161Z,101750.45
2023-05-19T19:51:52.007Z,101754.42
2023-05-19T19:54:19.949Z,101754.42
2023-05-19T19:56:47.753Z,101754.00
2023-05-19T19:59:16.002Z,101753.45
2023-05-19T20:01:44.029Z,101752.54
2023-05-19T20:04:12.474Z,101754.37
2023-05-19T20:06:40.532Z,101754.69
2023-05-19T20:09:08.510Z,101753.83
2023-05-19T20:11:36.519Z,101755.00
2023-05-19T20:14:04.453Z,101755.03
2023-05-19T20:16:32.457Z,101755.70
2023-05-19T20:19:01.536Z,101754.34
2023-05-19T20:21:29.571Z,101762.90
2023-05-19T20:23:57.656Z,101761.14
2023-05-19T20:26:25.573Z,101763.50
2023-05-19T20:28:53.503Z,101761.44
2023-05-19T20:31:24.708Z,101760.09
2023-05-19T20:33:52.679Z,101762.48
2023-05-19T20:36:20.940Z,101760.08
2023-05-19T20:38:48.834Z,101762.15
2023-05-19T20:41:16.804Z,101763.03
2023-05-19T20:43:44.624Z,101762.81
2023-05-19T20:46:12.819Z,101762.52
2023-05-19T20:48:41.080Z,101766.39
2023-05-19T20:51:08.905Z,101761.05
2023-05-19T20:53:36.958Z,101763.81
2023-05-19T20:56:07.127Z,101768.28
2023-05-19T20:58:34.908Z,101764.90
2023-05-19T21:01:03.485Z,101759.58
2023-05-19T21:03:32.383Z,101767.45
2023-05-19T21:06:00.783Z,101763.80
2023-05-19T21:08:29.783Z,101756.98
2023-05-19T21:10:57.613Z,101762.38
2023-05-19T21:13:25.526Z,101762.50
2023-05-19T21:15:55.825Z,101755.09
2023-05-19T21:18:23.689Z,101763.86
2023-05-19T21:20:51.471Z,101764.70
2023-05-19T21:23:19.380Z,101764.56
2023-05-19T21:25:47.318Z,101767.77
2023-05-19T21:28:15.679Z,101772.13
2023-05-19T21:30:48.974Z,101772.91
2023-05-19T21:33:17.193Z,101772.73
2023-05-19T21:35:46.014Z,101774.77
2023-05-19T21:38:23.289Z,101769.65
2023-05-19T21:40:53.171Z,101773.95
2023-05-19T21:43:21.916Z,101772.73
2023-05-19T21:45:49.953Z,101778.21
2023-05-19T21:48:18.090Z,101777.61
2023-05-19T21:50:45.963Z,101777.01
2023-05-19T21:53:13.868Z,101774.43
2023-05-19T21:55:41.761Z,101767.77
2023-05-19T21:58:09.676Z,101772.88
2023-05-19T22:00:38.221Z,101774.89
2023-05-19T22:03:06.696Z,101772.73
2023-05-19T22:05:35.428Z,101778.34
2023-05-19T22:08:03.633Z,101779.32
2023-05-19T22:10:32.046Z,101776.30
2023-05-19T22:13:00.230Z,101782.03
2023-05-19T22:15:28.224Z,101779.70
2023-05-19T22:17:56.235Z,101779.70
2023-05-19T22:20:24.521Z,101779.84
2023-05-19T22:22:52.545Z,101780.25
2023-05-19T22:25:20.777Z,101780.38
2023-05-19T22:27:48.661Z,101778.75
2023-05-19T22:30:17.127Z,101775.10
2023-05-19T22:32:45.385Z,101775.06
2023-05-19T22:35:13.486Z,101772.29
2023-05-19T22:37:41.326Z,101774.66
2023-05-19T22:40:09.478Z,101773.34
2023-05-19T22:42:37.318Z,101771.15
2023-05-19T22:45:06.254Z,101769.52
2023-05-19T22:47:34.180Z,101766.33
2023-05-19T22:50:02.447Z,101767.35
2023-05-19T22:52:30.630Z,101761.10
2023-05-19T22:54:58.746Z,101755.31
2023-05-19T22:57:26.606Z,101757.02
2023-05-19T22:59:54.448Z,101756.21
2023-05-19T23:02:22.531Z,101752.34
2023-05-19T23:04:50.515Z,101756.96
2023-05-19T23:07:18.312Z,101755.90
2023-05-19T23:09:46.376Z,101754.62
2023-05-19T23:12:14.212Z,101755.39
2023-05-19T23:14:42.130Z,101755.10
2023-05-19T23:17:10.034Z,101753.66
2023-05-19T23:19:38.388Z,101755.73
2023-05-19T23:22:06.255Z,101762.02
2023-05-19T23:24:34.102Z,101763.23
2023-05-19T23:27:02.101Z,101761.05
2023-05-19T23:29:29.968Z,101761.23
2023-05-19T23:31:57.883Z,101762.48
2023-05-19T23:34:25.912Z,101753.87
2023-05-19T23:36:53.777Z,101756.65
2023-05-19T23:39:22.060Z,101753.84
2023-05-19T23:41:49.993Z,101751.39
2023-05-19T23:44:18.759Z,101753.70
2023-05-19T23:46:46.682Z,101755.10
2023-05-19T23:49:14.675Z,101753.25
2023-05-19T23:51:42.479Z,101752.11
2023-05-19T23:54:10.322Z,101750.59
2023-05-19T23:56:38.204Z,101750.58
2023-05-19T23:59:06.159Z,101753.19
